Time;durP1;ratioP1;P1;durP2;ratioP2;P2;SDS_P1;SDS_P2;PMS_P1;PMS_P2;Temp;Humidity;BMP_temperature;BMP_pressure;BME280_temperature;BME280_humidity;BME280_pressure;Samples;Min_cycle;Max_cycle;Signal;HPM_P1;HPM_P2
2021/10/15 00:02:10;;;;;;;10.33;8.00;;;;;;;9.76;66.64;97065.13;5072424;28;20334;-66
2021/10/15 00:04:36;;;;;;;16.87;8.00;;;;;;;9.82;66.25;97059.31;5072281;28;20198;-67
2021/10/15 00:07:02;;;;;;;12.33;8.13;;;;;;;9.69;66.71;97067.53;5072428;28;20277;-67
2021/10/15 00:09:27;;;;;;;17.37;8.43;;;;;;;9.74;66.06;97056.59;5072475;28;20201;-67
2021/10/15 00:11:53;;;;;;;10.33;7.63;;;;;;;9.77;66.45;97051.88;5059746;28;20550;-67
2021/10/15 00:14:18;;;;;;;8.80;7.87;;;;;;;9.76;65.91;97054.66;5072675;28;20653;-66
2021/10/15 00:16:44;;;;;;;11.30;7.63;;;;;;;9.79;66.39;97049.94;5065038;28;20206;-67
2021/10/15 00:19:10;;;;;;;11.27;7.30;;;;;;;9.77;66.09;97046.63;5071474;28;20179;-66
2021/10/15 00:21:35;;;;;;;9.70;7.33;;;;;;;9.74;65.58;97044.34;5066678;28;20187;-67
2021/10/15 00:24:01;;;;;;;10.63;7.73;;;;;;;9.60;65.72;97044.88;5069940;28;20255;-67
2021/10/15 00:26:26;;;;;;;12.00;8.60;;;;;;;9.55;66.44;97050.56;5072048;28;20277;-67
2021/10/15 00:28:52;;;;;;;10.80;7.57;;;;;;;9.55;66.47;97047.94;5070659;28;20261;-67
2021/10/15 00:31:17;;;;;;;9.47;8.13;;;;;;;9.62;66.33;97042.94;5065219;28;20610;-67
2021/10/15 00:33:43;;;;;;;10.00;7.40;;;;;;;9.60;66.29;97050.09;5071817;28;20248;-68
2021/10/15 00:36:08;;;;;;;8.50;6.90;;;;;;;9.54;66.35;97041.06;5072002;28;20675;-67
2021/10/15 00:38:34;;;;;;;10.20;6.80;;;;;;;9.51;66.09;97041.34;5071824;28;20198;-67
2021/10/15 00:41:00;;;;;;;8.00;6.67;;;;;;;9.48;66.38;97032.03;5070022;28;20541;-67
2021/10/15 00:43:26;;;;;;;10.30;7.73;;;;;;;9.47;66.59;97021.69;5058994;28;20229;-67
2021/10/15 00:45:52;;;;;;;10.87;7.90;;;;;;;9.44;66.12;97029.84;5071681;28;20213;-67
2021/10/15 00:48:18;;;;;;;12.50;8.13;;;;;;;9.43;66.43;97026.41;5070052;28;20412;-67
2021/10/15 00:50:44;;;;;;;10.13;7.57;;;;;;;9.41;66.20;97019.69;5071715;28;20189;-67
2021/10/15 00:53:10;;;;;;;9.50;6.93;;;;;;;9.43;65.89;97020.38;5071475;28;20685;-67
2021/10/15 00:55:36;;;;;;;8.00;6.30;;;;;;;9.50;65.67;97013.56;5071370;28;20460;-68
2021/10/15 00:58:02;;;;;;;8.57;6.73;;;;;;;9.46;65.77;97010.41;5075940;28;20182;-67
2021/10/15 01:00:28;;;;;;;10.30;7.30;;;;;;;9.46;65.29;97005.19;5074324;28;20836;-67
2021/10/15 01:02:53;;;;;;;10.37;7.13;;;;;;;9.45;65.26;97006.16;5071860;28;20220;-67
2021/10/15 01:05:19;;;;;;;8.17;6.80;;;;;;;9.45;65.66;97007.97;5072111;28;20175;-66
2021/10/15 01:07:45;;;;;;;10.10;6.37;;;;;;;9.35;66.05;97002.78;5071484;28;20186;-67
2021/10/15 01:10:10;;;;;;;9.23;6.43;;;;;;;9.40;65.55;97002.34;5071878;28;20181;-66
2021/10/15 01:12:37;;;;;;;7.47;5.83;;;;;;;9.45;65.60;96997.50;5059557;28;20779;-67
2021/10/15 01:15:04;;;;;;;8.63;6.00;;;;;;;9.51;65.32;96991.66;5070302;28;20189;-66
2021/10/15 01:17:29;;;;;;;7.07;5.63;;;;;;;9.51;65.05;96989.84;5065290;28;20891;-67
2021/10/15 01:19:55;;;;;;;9.57;6.50;;;;;;;9.49;64.99;96994.44;5069636;28;20497;-66
2021/10/15 01:22:28;;;;;;;7.83;6.23;;;;;;;9.50;65.14;96990.00;5063998;28;20252;-67
2021/10/15 01:24:55;;;;;;;7.83;5.63;;;;;;;9.50;65.11;96990.84;5071153;28;20862;-67
2021/10/15 01:27:21;;;;;;;9.47;6.10;;;;;;;9.49;65.09;96981.34;5071217;28;20417;-66
2021/10/15 01:29:47;;;;;;;6.13;5.40;;;;;;;9.48;65.08;96982.31;5071439;28;20478;-66
2021/10/15 01:32:14;;;;;;;8.40;6.00;;;;;;;9.48;65.07;96984.09;5066246;28;20249;-68
2021/10/15 01:34:39;;;;;;;8.80;6.13;;;;;;;9.52;64.91;96985.44;5066309;28;20799;-65
2021/10/15 01:37:05;;;;;;;9.50;5.40;;;;;;;9.57;64.84;96977.97;5070798;28;20432;-65
2021/10/15 01:39:30;;;;;;;7.20;5.80;;;;;;;9.57;64.63;96970.13;5070216;28;20208;-67
2021/10/15 01:41:56;;;;;;;11.20;6.10;;;;;;;9.60;65.01;96971.63;5058948;28;20182;-67
2021/10/15 01:44:22;;;;;;;9.63;5.73;;;;;;;9.58;64.83;96973.56;5064666;28;20309;-66
2021/10/15 01:46:48;;;;;;;8.30;5.40;;;;;;;9.58;64.32;96966.50;5069519;28;20227;-66
2021/10/15 01:49:13;;;;;;;8.90;6.43;;;;;;;9.53;64.85;96961.75;5069107;28;20174;-67
2021/10/15 01:51:39;;;;;;;8.00;6.20;;;;;;;9.57;64.54;96961.44;5071022;28;20175;-67
2021/10/15 01:54:05;;;;;;;6.40;5.40;;;;;;;9.55;64.65;96955.53;5070754;28;20301;-68
2021/10/15 01:56:34;;;;;;;6.23;5.47;;;;;;;9.52;64.71;96949.63;5071898;28;20182;-67
2021/10/15 01:59:00;;;;;;;10.50;6.03;;;;;;;9.57;64.32;96945.75;5020633;28;20431;-67
2021/10/15 02:01:26;;;;;;;7.70;6.03;;;;;;;9.58;64.32;96950.81;5071203;28;20762;-67
2021/10/15 02:03:51;;;;;;;7.90;5.93;;;;;;;9.60;63.96;96937.59;5070456;28;20652;-67
2021/10/15 02:06:18;;;;;;;7.53;5.97;;;;;;;9.53;64.20;96948.66;5062952;28;20596;-67
2021/10/15 02:08:43;;;;;;;9.37;6.50;;;;;;;9.56;64.28;96944.94;5062804;28;20287;-67
2021/10/15 02:11:09;;;;;;;6.70;6.00;;;;;;;9.53;64.50;96940.00;5068275;28;20861;-67
2021/10/15 02:13:35;;;;;;;7.33;6.00;;;;;;;9.56;64.21;96936.25;5059881;28;20210;-67
2021/10/15 02:16:00;;;;;;;8.80;6.27;;;;;;;9.59;64.12;96928.91;5069008;28;20278;-67
2021/10/15 02:18:26;;;;;;;7.93;6.33;;;;;;;9.62;63.83;96936.47;5063577;28;20520;-67
2021/10/15 02:20:52;;;;;;;8.50;6.20;;;;;;;9.60;63.30;96934.97;5070182;28;20183;-67
2021/10/15 02:23:18;;;;;;;6.60;5.67;;;;;;;9.57;63.50;96924.81;5062887;28;20490;-66
2021/10/15 02:25:43;;;;;;;10.70;6.80;;;;;;;9.53;63.92;96925.13;5069558;28;20795;-68
2021/10/15 02:28:09;;;;;;;8.17;6.43;;;;;;;9.58;63.25;96926.47;5060748;28;20186;-67
2021/10/15 02:30:34;;;;;;;7.43;5.90;;;;;;;9.55;63.38;96918.91;5070102;28;20183;-67
2021/10/15 02:33:02;;;;;;;9.07;6.30;;;;;;;9.47;64.23;96930.13;5070292;28;20207;-67
2021/10/15 02:35:27;;;;;;;8.50;6.30;;;;;;;9.55;63.23;96913.69;5058639;28;20203;-67
2021/10/15 02:37:53;;;;;;;8.83;6.70;;;;;;;9.47;63.52;96910.03;5063248;28;20479;-67
2021/10/15 02:40:18;;;;;;;8.87;6.60;;;;;;;9.53;63.49;96901.56;5071723;28;20186;-67
2021/10/15 02:42:44;;;;;;;14.93;6.67;;;;;;;9.55;63.25;96911.06;5051969;28;20214;-67
2021/10/15 02:45:10;;;;;;;8.50;6.37;;;;;;;9.44;63.86;96905.09;5069049;28;20546;-67
2021/10/15 02:47:35;;;;;;;7.80;6.27;;;;;;;9.49;63.72;96894.19;5070570;28;20265;-67
2021/10/15 02:50:02;;;;;;;8.80;6.73;;;;;;;9.57;63.05;96896.88;5070503;28;20543;-66
2021/10/15 02:52:27;;;;;;;11.10;6.80;;;;;;;9.50;63.13;96893.22;5071192;28;20659;-66
2021/10/15 02:54:53;;;;;;;9.40;6.90;;;;;;;9.54;63.51;96894.56;5056196;28;20435;-66
2021/10/15 02:57:19;;;;;;;10.50;6.63;;;;;;;9.55;63.42;96892.75;5047789;28;20564;-66
2021/10/15 02:59:44;;;;;;;8.10;6.03;;;;;;;9.52;63.34;96886.03;5056272;28;20201;-66
2021/10/15 03:02:10;;;;;;;8.13;6.20;;;;;;;9.50;63.25;96888.81;5039475;28;20557;-67
2021/10/15 03:04:36;;;;;;;9.80;6.90;;;;;;;9.52;63.17;96878.19;5039587;28;20193;-67
2021/10/15 03:07:01;;;;;;;8.30;5.90;;;;;;;9.50;63.01;96878.34;5073469;28;20183;-66
2021/10/15 03:09:27;;;;;;;8.50;6.63;;;;;;;9.47;62.86;96883.03;5074008;28;20174;-66
2021/10/15 03:11:54;;;;;;;7.57;6.50;;;;;;;9.42;63.88;96880.09;5061165;28;20183;-67
2021/10/15 03:14:19;;;;;;;7.47;6.10;;;;;;;9.45;63.05;96880.59;5073711;28;20198;-67
2021/10/15 03:16:45;;;;;;;10.13;6.53;;;;;;;9.43;63.14;96872.06;5068503;28;20426;-67
2021/10/15 03:19:10;;;;;;;8.23;6.50;;;;;;;9.44;62.88;96876.34;5073135;28;20185;-67
2021/10/15 03:21:36;;;;;;;7.87;5.87;;;;;;;9.42;63.23;96869.63;5067627;28;20294;-67
2021/10/15 03:24:01;;;;;;;7.90;6.37;;;;;;;9.40;63.04;96877.59;5071817;28;20585;-66
2021/10/15 03:26:27;;;;;;;11.63;6.63;;;;;;;9.35;63.28;96872.84;5071977;28;20602;-66
2021/10/15 03:28:53;;;;;;;9.80;6.30;;;;;;;9.26;63.47;96870.34;5073258;28;20714;-66
2021/10/15 03:31:18;;;;;;;6.80;5.80;;;;;;;9.31;63.47;96874.13;5073497;28;20179;-65
2021/10/15 03:33:44;;;;;;;9.93;6.80;;;;;;;9.28;63.67;96877.03;5073866;28;20198;-66
2021/10/15 03:36:09;;;;;;;7.90;6.20;;;;;;;9.26;63.44;96865.91;5055630;28;20564;-66
2021/10/15 03:38:35;;;;;;;7.67;6.97;;;;;;;9.28;63.10;96879.66;5074044;28;20179;-66
2021/10/15 03:41:01;;;;;;;8.60;6.30;;;;;;;9.26;63.25;96876.38;5073882;28;20266;-66
2021/10/15 03:43:26;;;;;;;9.40;6.80;;;;;;;9.20;63.18;96877.81;5062284;28;20202;-67
2021/10/15 03:45:52;;;;;;;8.30;6.37;;;;;;;9.16;63.13;96879.06;5083495;28;20183;-66
2021/10/15 03:48:17;;;;;;;9.63;6.93;;;;;;;9.18;63.37;96876.31;5074128;28;20170;-67
2021/10/15 03:50:43;;;;;;;11.47;6.87;;;;;;;9.21;63.15;96873.38;5028789;28;20622;-66
2021/10/15 03:53:08;;;;;;;8.43;7.07;;;;;;;9.26;63.11;96867.72;5056744;28;20278;-65
2021/10/15 03:55:34;;;;;;;8.53;7.10;;;;;;;9.15;63.07;96863.53;5075026;28;20272;-67
2021/10/15 03:58:00;;;;;;;9.97;7.03;;;;;;;9.10;63.67;96863.16;5075266;28;20186;-66
2021/10/15 04:00:25;;;;;;;9.77;7.10;;;;;;;9.13;63.20;96862.88;5054589;28;20295;-66
2021/10/15 04:02:51;;;;;;;7.40;6.60;;;;;;;9.12;63.57;96863.84;5078009;28;20215;-67
2021/10/15 04:05:16;;;;;;;9.23;6.87;;;;;;;9.13;63.47;96855.03;5079479;28;20201;-67
2021/10/15 04:07:43;;;;;;;9.47;6.80;;;;;;;9.06;63.63;96860.88;5079136;28;20259;-67
2021/10/15 04:10:09;;;;;;;12.70;6.77;;;;;;;9.04;62.97;96862.81;5074530;28;20185;-66
2021/10/15 04:12:35;;;;;;;14.83;7.40;;;;;;;9.01;63.18;96863.09;5058220;28;20495;-66
2021/10/15 04:15:01;;;;;;;11.37;7.07;;;;;;;8.93;63.45;96860.44;5061236;28;20466;-66
2021/10/15 04:17:27;;;;;;;11.30;6.23;;;;;;;8.88;63.79;96846.97;5055433;28;20677;-66
2021/10/15 04:19:52;;;;;;;7.50;6.50;;;;;;;8.87;63.41;96853.19;5052628;28;20425;-66
2021/10/15 04:22:18;;;;;;;10.20;7.07;;;;;;;8.86;63.70;96843.69;5052333;28;20179;-66
2021/10/15 04:24:44;;;;;;;10.53;6.70;;;;;;;8.82;63.63;96842.38;5059894;28;20430;-66
2021/10/15 04:27:09;;;;;;;9.90;6.57;;;;;;;8.87;63.83;96842.72;5044302;28;20183;-66
2021/10/15 04:29:35;;;;;;;12.50;7.00;;;;;;;8.84;63.79;96841.25;5059815;28;20174;-65
2021/10/15 04:32:01;;;;;;;8.40;7.00;;;;;;;8.87;63.66;96840.13;5051813;28;20210;-66
2021/10/15 04:34:26;;;;;;;8.70;6.50;;;;;;;8.83;63.39;96838.75;5058279;28;20221;-66
2021/10/15 04:36:52;;;;;;;7.77;6.80;;;;;;;8.80;63.39;96834.66;5051928;28;20729;-66
2021/10/15 04:39:18;;;;;;;7.60;6.30;;;;;;;8.78;64.19;96841.03;5056063;28;20174;-67
2021/10/15 04:41:44;;;;;;;8.53;6.93;;;;;;;8.75;63.69;96836.91;5027301;28;20445;-66
2021/10/15 04:44:09;;;;;;;9.77;6.93;;;;;;;8.69;63.71;96837.50;5051281;28;20195;-67
2021/10/15 04:46:35;;;;;;;10.13;6.43;;;;;;;8.69;64.07;96833.13;5053695;28;20183;-66
2021/10/15 04:49:01;;;;;;;9.10;6.83;;;;;;;8.68;64.51;96834.09;5052870;28;20187;-66
2021/10/15 04:51:28;;;;;;;8.47;7.07;;;;;;;8.69;64.24;96838.34;5053121;28;20231;-66
2021/10/15 04:53:53;;;;;;;8.73;7.30;;;;;;;8.65;64.15;96825.69;5060057;28;20198;-67
2021/10/15 04:56:19;;;;;;;12.73;7.67;;;;;;;8.62;64.93;96824.22;5052318;28;20939;-67
2021/10/15 04:58:44;;;;;;;10.73;6.80;;;;;;;8.69;63.83;96817.44;5059359;28;20216;-66
2021/10/15 05:01:10;;;;;;;9.30;6.20;;;;;;;8.68;64.15;96814.97;5051387;28;20175;-66
2021/10/15 05:03:35;;;;;;;10.10;7.50;;;;;;;8.68;64.27;96814.97;5060936;28;20334;-67
2021/10/15 05:06:01;;;;;;;9.60;7.53;;;;;;;8.72;64.11;96811.91;5051911;28;20183;-66
2021/10/15 05:08:32;;;;;;;10.27;7.60;;;;;;;8.61;64.41;96819.97;5051958;28;20186;-66
2021/10/15 05:10:58;;;;;;;12.23;7.70;;;;;;;8.68;64.50;96813.19;5064180;28;20185;-67
2021/10/15 05:13:24;;;;;;;12.40;8.07;;;;;;;8.69;64.05;96820.06;5054024;28;20438;-66
2021/10/15 05:15:49;;;;;;;11.00;7.43;;;;;;;8.67;63.88;96813.31;5043102;28;20673;-64
2021/10/15 05:18:15;;;;;;;9.50;6.73;;;;;;;8.64;64.30;96804.00;5063650;28;20180;-66
2021/10/15 05:20:42;;;;;;;8.07;6.53;;;;;;;8.59;64.34;96806.22;5063339;28;20185;-66
2021/10/15 05:23:08;;;;;;;15.40;7.40;;;;;;;8.57;64.48;96809.00;5052986;28;20210;-66
2021/10/15 05:25:35;;;;;;;10.00;7.07;;;;;;;8.60;64.19;96807.88;5066970;28;20492;-67
2021/10/15 05:28:00;;;;;;;14.73;8.30;;;;;;;8.59;64.50;96808.84;5055925;28;20438;-65
2021/10/15 05:30:26;;;;;;;14.27;9.47;;;;;;;8.63;64.33;96809.38;5050701;28;20449;-66
2021/10/15 05:32:53;;;;;;;12.83;7.97;;;;;;;8.63;64.59;96812.81;5051907;28;20198;-68
2021/10/15 05:35:18;;;;;;;11.10;6.83;;;;;;;8.62;64.02;96811.16;5059796;28;20456;-67
2021/10/15 05:37:44;;;;;;;12.50;6.47;;;;;;;8.62;64.79;96808.53;5043234;28;20459;-66
2021/10/15 05:40:10;;;;;;;10.47;7.27;;;;;;;8.63;64.23;96797.13;5045077;28;20548;-67
2021/10/15 05:42:35;;;;;;;11.90;6.90;;;;;;;8.68;64.23;96805.34;5055845;28;20191;-67
2021/10/15 05:45:01;;;;;;;9.77;7.57;;;;;;;8.71;63.84;96799.81;5052897;28;20417;-67
2021/10/15 05:47:27;;;;;;;10.70;6.93;;;;;;;8.75;63.55;96809.00;5057648;28;20634;-66
2021/10/15 05:49:52;;;;;;;10.73;6.80;;;;;;;8.77;63.72;96819.28;5059274;28;20559;-66
2021/10/15 05:52:29;;;;;;;12.83;6.43;;;;;;;8.79;63.81;96804.28;5051224;28;20190;-67
2021/10/15 06:00:25;;;;;;;16.60;7.53;;;;;;;8.90;63.29;96808.47;5039553;28;20434;-66
2021/10/15 06:02:51;;;;;;;15.60;6.93;;;;;;;8.94;63.22;96809.81;5050653;28;20461;-67
2021/10/15 06:15:59;;;;;;;13.60;6.50;;;;;;;9.26;62.08;96816.22;5060250;28;20417;-67
2021/10/15 06:18:26;;;;;;;10.80;6.50;;;;;;;9.34;61.45;96813.66;5065873;28;20412;-67
2021/10/15 06:20:52;;;;;;;8.70;6.37;;;;;;;9.58;60.71;96816.56;5071893;28;20424;-67
2021/10/15 06:23:18;;;;;;;8.10;5.73;;;;;;;9.70;60.15;96817.94;5059966;28;20457;-67
2021/10/15 06:25:44;;;;;;;9.17;5.77;;;;;;;9.88;59.50;96814.44;5067657;28;20412;-67
2021/10/15 06:28:13;;;;;;;11.10;5.87;;;;;;;9.88;59.24;96817.88;5073037;28;20435;-67
2021/10/15 06:30:39;;;;;;;9.47;6.00;;;;;;;10.08;58.50;96817.63;5074361;28;20186;-65
2021/10/15 06:33:06;;;;;;;7.67;5.90;;;;;;;10.09;58.66;96811.38;5074211;28;20797;-66
2021/10/15 06:35:31;;;;;;;9.60;6.50;;;;;;;9.90;58.98;96818.53;5074767;28;20409;-67
2021/10/15 06:37:57;;;;;;;8.53;5.63;;;;;;;9.99;58.80;96820.19;5059042;28;20428;-66
2021/10/15 06:40:22;;;;;;;8.07;5.43;;;;;;;9.84;58.76;96817.38;5073990;28;20254;-66
2021/10/15 06:42:48;;;;;;;6.00;5.40;;;;;;;10.22;57.61;96819.59;5073618;28;20213;-66
2021/10/15 06:45:15;;;;;;;7.30;5.47;;;;;;;10.13;57.94;96818.78;5057384;28;20196;-67
2021/10/15 06:47:40;;;;;;;9.83;6.00;;;;;;;9.90;59.02;96820.31;5074037;28;20508;-66
2021/10/15 06:50:07;;;;;;;15.37;5.50;;;;;;;9.97;59.02;96816.91;5073823;28;20476;-68
2021/10/15 06:52:39;;;;;;;10.20;5.33;;;;;;;10.28;58.00;96826.00;5073944;28;20175;-65
2021/10/15 06:55:06;;;;;;;8.50;5.67;;;;;;;10.14;58.44;96824.84;5072406;28;20504;-67
2021/10/15 06:57:32;;;;;;;7.83;5.23;;;;;;;10.24;57.79;96822.91;5038897;28;20470;-66
2021/10/15 06:59:58;;;;;;;5.87;5.10;;;;;;;10.13;57.79;96828.44;5072557;28;20452;-66
2021/10/15 07:02:24;;;;;;;7.50;5.20;;;;;;;10.62;56.46;96819.06;5038814;28;20205;-67
2021/10/15 07:04:49;;;;;;;6.60;5.37;;;;;;;10.64;56.32;96824.97;5030937;28;20202;-67
2021/10/15 07:07:15;;;;;;;6.10;5.03;;;;;;;10.91;56.07;96834.31;5067550;28;20170;-66
2021/10/15 07:09:41;;;;;;;6.43;4.93;;;;;;;11.09;55.63;96834.16;5073420;28;20181;-67
2021/10/15 07:12:07;;;;;;;6.63;4.83;;;;;;;11.18;55.87;96835.81;5058369;28;20785;-67
2021/10/15 07:14:32;;;;;;;5.20;4.50;;;;;;;11.38;55.20;96838.06;5073791;28;20190;-67
2021/10/15 07:16:58;;;;;;;7.17;5.50;;;;;;;11.56;54.97;96837.88;5068374;28;20187;-67
2021/10/15 07:19:23;;;;;;;7.77;5.13;;;;;;;11.60;54.87;96833.09;5073324;28;20183;-67
2021/10/15 07:21:49;;;;;;;10.97;5.10;;;;;;;11.70;54.48;96832.94;5066324;28;20502;-67
2021/10/15 07:24:15;;;;;;;15.07;5.63;;;;;;;11.82;54.57;96835.03;5072358;28;20230;-66
2021/10/15 07:26:41;;;;;;;6.40;5.30;;;;;;;11.90;54.21;96839.44;5073749;28;20639;-68
2021/10/15 07:29:07;;;;;;;5.80;5.00;;;;;;;12.00;54.41;96843.69;5073212;28;20810;-67
2021/10/15 07:31:35;;;;;;;5.63;4.90;;;;;;;12.02;53.52;96845.16;5062555;28;20179;-67
2021/10/15 07:34:02;;;;;;;14.03;5.30;;;;;;;12.19;52.81;96840.66;5073669;28;20449;-67
2021/10/15 07:36:27;;;;;;;5.93;4.80;;;;;;;12.28;52.89;96838.81;5074653;28;20425;-68
2021/10/15 07:38:53;;;;;;;7.33;4.93;;;;;;;12.50;52.74;96849.53;5067256;28;20417;-67
2021/10/15 07:41:19;;;;;;;7.90;5.60;;;;;;;12.56;52.62;96848.84;5073373;28;20180;-68
2021/10/15 07:43:47;;;;;;;5.53;4.93;;;;;;;12.73;52.07;96850.38;5072479;28;20214;-68
2021/10/15 07:46:13;;;;;;;4.93;4.43;;;;;;;12.66;52.30;96844.19;5073093;28;20190;-66
2021/10/15 07:48:39;;;;;;;6.83;4.70;;;;;;;12.94;51.76;96848.94;5071052;28;21015;-66
2021/10/15 07:51:04;;;;;;;4.73;4.17;;;;;;;12.55;52.32;96853.28;5072685;28;20507;-68
2021/10/15 07:53:30;;;;;;;6.23;4.93;;;;;;;12.78;52.08;96847.25;5072510;28;20225;-67
2021/10/15 07:55:56;;;;;;;4.73;3.90;;;;;;;13.13;51.45;96849.41;5071285;28;20182;-66
2021/10/15 07:58:21;;;;;;;5.83;4.30;;;;;;;13.06;51.41;96855.41;5065342;28;20186;-67
2021/10/15 08:00:47;;;;;;;7.93;4.60;;;;;;;13.13;51.74;96849.41;5073582;28;20182;-69
2021/10/15 08:03:12;;;;;;;5.10;3.83;;;;;;;13.02;51.46;96848.84;5073385;28;20719;-67
2021/10/15 08:05:39;;;;;;;7.43;3.57;;;;;;;13.18;51.58;96849.72;5049397;28;20178;-67
2021/10/15 08:08:04;;;;;;;5.00;4.40;;;;;;;13.40;51.50;96841.97;5062337;28;20417;-67
2021/10/15 08:10:30;;;;;;;6.70;3.50;;;;;;;13.36;51.26;96842.31;5054380;28;20179;-68
2021/10/15 08:12:56;;;;;;;5.53;3.77;;;;;;;14.03;49.63;96845.13;5068016;28;20225;-68
2021/10/15 08:15:22;;;;;;;3.53;3.07;;;;;;;14.29;49.27;96844.63;5072426;28;20204;-68
2021/10/15 08:17:58;;;;;;;5.00;3.90;;;;;;;14.47;49.16;96845.22;5068907;28;20425;-67
2021/10/15 08:20:24;;;;;;;5.37;4.07;;;;;;;14.50;48.94;96844.84;5074477;28;20185;-67
2021/10/15 08:22:51;;;;;;;4.40;3.90;;;;;;;14.60;48.83;96845.34;5064560;28;20456;-67
2021/10/15 08:25:17;;;;;;;4.53;3.43;;;;;;;14.68;48.63;96852.38;5071702;28;20546;-68
2021/10/15 08:27:42;;;;;;;5.77;3.40;;;;;;;14.26;49.39;96850.25;5071355;28;20470;-67
2021/10/15 08:30:08;;;;;;;6.50;3.70;;;;;;;13.88;50.59;96850.38;5071787;28;20248;-68
2021/10/15 08:32:34;;;;;;;5.53;4.00;;;;;;;14.08;50.26;96852.47;5071798;28;20466;-67
2021/10/15 08:34:59;;;;;;;6.40;3.70;;;;;;;14.28;50.19;96853.53;5072184;28;20645;-68
2021/10/15 08:37:25;;;;;;;6.10;4.13;;;;;;;14.20;50.34;96856.28;5066200;28;20178;-67
2021/10/15 08:39:51;;;;;;;5.03;3.60;;;;;;;13.78;51.11;96857.72;5070327;28;20557;-68
2021/10/15 08:42:16;;;;;;;5.87;3.80;;;;;;;13.52;51.47;96849.28;5071681;28;20261;-67
2021/10/15 08:44:46;;;;;;;4.77;3.20;;;;;;;13.92;51.06;96856.13;5071582;28;20677;-67
2021/10/15 08:47:14;;;;;;;4.57;3.37;;;;;;;14.32;50.35;96851.34;5069932;28;20213;-67
2021/10/15 08:49:40;;;;;;;7.07;3.50;;;;;;;14.80;49.13;96848.25;5070552;28;20520;-67
2021/10/15 08:52:06;;;;;;;5.37;3.30;;;;;;;14.78;48.77;96852.06;5063364;28;20500;-67
2021/10/15 08:54:32;;;;;;;5.30;3.20;;;;;;;14.97;48.05;96850.63;5064146;28;20206;-67
2021/10/15 08:56:58;;;;;;;4.60;3.23;;;;;;;15.25;47.35;96853.31;5068864;28;20534;-68
2021/10/15 08:59:44;;;;;;;3.77;3.37;;;;;;;15.40;46.87;96847.94;5062803;28;21088;-67
2021/10/15 09:02:12;;;;;;;6.00;3.90;;;;;;;15.34;47.36;96852.16;5070973;28;20420;-67
2021/10/15 09:04:46;;;;;;;4.30;3.20;;;;;;;15.39;47.26;96856.88;5069859;28;20457;-67
2021/10/15 09:07:16;;;;;;;5.50;4.73;;;;;;;15.76;46.51;96854.09;5065672;28;20471;-67
2021/10/15 09:09:43;;;;;;;7.53;3.30;;;;;;;15.87;46.30;96856.22;5071826;28;20804;-67
2021/10/15 09:12:15;;;;;;;5.10;3.20;;;;;;;15.83;46.45;96854.91;5071739;28;20448;-67
2021/10/15 09:14:41;;;;;;;7.40;4.10;;;;;;;15.95;46.27;96847.31;5071852;28;20824;-67
2021/10/15 09:17:13;;;;;;;5.50;3.30;;;;;;;16.50;45.39;96849.19;5074067;28;20474;-67
2021/10/15 09:19:41;;;;;;;5.50;3.47;;;;;;;16.48;44.80;96851.19;5076495;28;20420;-67
2021/10/15 09:22:17;;;;;;;3.23;2.93;;;;;;;16.14;45.51;96845.78;5083521;28;20425;-67
2021/10/15 09:24:52;;;;;;;3.23;2.33;;;;;;;16.68;44.10;96857.34;5078703;28;20445;-69
2021/10/15 09:27:23;;;;;;;5.43;2.80;;;;;;;16.89;44.19;96858.19;5054897;28;20440;-68
2021/10/15 09:29:51;;;;;;;3.37;2.43;;;;;;;16.71;43.68;96848.19;5071755;28;20880;-67
2021/10/15 09:32:19;;;;;;;3.43;2.57;;;;;;;16.24;45.00;96848.06;5077714;28;20751;-68
2021/10/15 09:34:45;;;;;;;2.30;2.10;;;;;;;16.67;43.93;96849.63;5080766;28;20444;-67
2021/10/15 09:37:20;;;;;;;2.93;2.20;;;;;;;16.85;43.95;96841.13;5070573;28;20440;-66
2021/10/15 09:39:45;;;;;;;4.40;2.20;;;;;;;16.99;43.58;96844.63;5074640;28;20186;-66
2021/10/15 09:42:29;;;;;;;4.03;2.87;;;;;;;16.91;43.39;96840.28;5081714;28;20453;-67
2021/10/15 09:45:02;;;;;;;4.00;2.17;;;;;;;16.36;45.11;96848.28;5084591;28;20188;-67
2021/10/15 09:47:28;;;;;;;3.60;2.57;;;;;;;16.54;44.66;96845.09;5079420;28;20431;-68
2021/10/15 09:49:59;;;;;;;3.67;2.20;;;;;;;17.33;43.16;96843.63;5084301;28;20437;-68
2021/10/15 09:52:35;;;;;;;2.33;2.13;;;;;;;17.63;42.57;96832.59;5074963;28;20213;-67
2021/10/15 09:55:10;;;;;;;3.60;2.60;;;;;;;17.66;41.94;96836.66;5071597;28;20431;-66
2021/10/15 09:57:37;;;;;;;4.80;2.67;;;;;;;17.87;41.51;96838.25;5052628;28;20466;-67
2021/10/15 10:00:09;;;;;;;5.03;2.57;;;;;;;17.46;42.11;96844.63;5070908;28;20424;-67
2021/10/15 10:02:35;;;;;;;2.27;1.93;;;;;;;17.33;42.15;96848.91;5074587;28;20571;-67
2021/10/15 10:05:03;;;;;;;4.80;2.73;;;;;;;16.56;44.22;96843.06;5073426;28;20836;-67
2021/10/15 10:07:28;;;;;;;2.67;2.43;;;;;;;16.95;44.23;96849.50;5069284;28;20428;-67
2021/10/15 10:09:54;;;;;;;2.80;2.37;;;;;;;17.50;43.04;96848.50;5074777;28;20523;-68
2021/10/15 10:12:20;;;;;;;9.47;4.07;;;;;;;16.68;44.64;96852.06;5070362;28;20195;-67
2021/10/15 10:14:46;;;;;;;2.60;2.10;;;;;;;17.30;43.28;96844.03;5062183;28;20205;-67
2021/10/15 10:17:17;;;;;;;2.50;2.10;;;;;;;17.22;42.14;96846.88;5065706;28;20212;-67
2021/10/15 10:19:44;;;;;;;3.17;2.40;;;;;;;16.83;44.34;96851.09;5065903;28;20435;-68
2021/10/15 10:22:09;;;;;;;3.50;2.60;;;;;;;17.18;43.79;96835.06;5073423;28;20417;-68
2021/10/15 10:24:36;;;;;;;4.17;1.97;;;;;;;17.01;43.14;96830.16;5073859;28;20463;-65
2021/10/15 10:27:02;;;;;;;2.73;1.83;;;;;;;17.27;42.45;96828.53;5073447;28;20550;-67
2021/10/15 10:29:28;;;;;;;5.20;2.77;;;;;;;16.99;43.47;96826.09;5055952;28;20424;-67
2021/10/15 10:32:14;;;;;;;2.60;2.00;;;;;;;16.79;43.72;96826.84;5073583;28;20186;-68
2021/10/15 10:34:41;;;;;;;2.83;2.57;;;;;;;17.32;43.11;96831.38;5074370;28;20523;-68
2021/10/15 10:37:09;;;;;;;3.43;2.60;;;;;;;17.15;43.28;96825.69;5065572;28;20442;-66
2021/10/15 10:39:36;;;;;;;4.43;2.93;;;;;;;16.98;43.58;96824.44;5072799;28;20420;-67
2021/10/15 10:42:15;;;;;;;7.73;3.43;;;;;;;17.53;42.55;96815.47;5077877;28;20883;-67
2021/10/15 10:44:50;;;;;;;4.57;2.90;;;;;;;17.90;41.57;96813.16;5075063;28;20944;-67
2021/10/15 10:47:22;;;;;;;7.97;2.80;;;;;;;17.93;40.96;96813.53;5050008;28;20408;-67
2021/10/15 10:50:06;;;;;;;3.53;3.10;;;;;;;17.16;42.21;96813.25;5074218;28;20503;-67
2021/10/15 10:52:40;;;;;;;4.90;2.90;;;;;;;17.15;42.54;96812.47;5062880;28;20416;-66
2021/10/15 10:55:06;;;;;;;4.90;3.20;;;;;;;16.87;43.19;96824.00;5072653;28;20539;-67
2021/10/15 10:57:41;;;;;;;4.10;2.47;;;;;;;16.61;43.74;96830.09;5066278;28;20801;-67
2021/10/15 11:00:22;;;;;;;3.10;2.80;;;;;;;16.90;43.58;96822.78;5073745;28;20180;-67
2021/10/15 11:02:50;;;;;;;4.03;2.60;;;;;;;17.00;43.39;96827.72;5074208;28;20450;-67
2021/10/15 11:05:35;;;;;;;6.53;3.20;;;;;;;17.15;43.83;96830.16;5073629;28;20417;-67
2021/10/15 11:08:23;;;;;;;4.03;3.40;;;;;;;17.69;42.98;96814.22;5068266;28;20486;-67
2021/10/15 11:10:49;;;;;;;3.70;2.93;;;;;;;17.78;41.97;96823.56;5074026;28;20920;-66
2021/10/15 11:13:32;;;;;;;2.87;2.60;;;;;;;18.55;40.67;96812.31;5072966;28;20497;-69
2021/10/15 11:15:57;;;;;;;3.83;2.90;;;;;;;17.94;41.87;96817.03;5072088;28;20474;-67
2021/10/15 11:18:24;;;;;;;5.20;2.83;;;;;;;17.70;42.64;96815.84;5067964;28;20878;-67
2021/10/15 11:20:49;;;;;;;4.57;2.80;;;;;;;18.80;40.66;96808.88;5063528;28;20175;-66
2021/10/15 11:23:15;;;;;;;2.90;2.33;;;;;;;18.44;40.32;96810.34;5054446;28;20487;-67
2021/10/15 11:25:43;;;;;;;3.60;2.77;;;;;;;18.50;39.35;96805.00;5069120;28;20594;-67
2021/10/15 11:28:12;;;;;;;3.60;2.80;;;;;;;18.60;39.38;96806.34;5073398;28;20190;-67
2021/10/15 11:30:44;;;;;;;5.83;2.90;;;;;;;18.74;39.15;96807.91;5073522;28;20509;-67
2021/10/15 11:33:20;;;;;;;2.60;2.40;;;;;;;18.52;39.64;96797.63;5072769;28;20482;-67
2021/10/15 11:35:50;;;;;;;4.87;2.60;;;;;;;19.74;37.45;96798.31;5073905;28;20419;-67
2021/10/15 11:38:21;;;;;;;4.97;2.60;;;;;;;18.95;39.05;96798.81;5056760;28;20417;-68
2021/10/15 11:40:49;;;;;;;2.83;2.53;;;;;;;18.50;40.28;96788.25;5073315;28;20412;-67
2021/10/15 11:43:27;;;;;;;2.93;2.37;;;;;;;18.33;40.55;96795.88;5057020;28;20510;-67
2021/10/15 11:45:56;;;;;;;2.50;2.27;;;;;;;18.73;40.04;96788.50;5073666;28;20822;-67
2021/10/15 11:48:30;;;;;;;4.60;2.97;;;;;;;18.70;40.08;96786.28;5073354;28;20421;-67
2021/10/15 11:51:19;;;;;;;4.83;3.10;;;;;;;18.87;39.21;96789.22;5073754;28;20804;-67
2021/10/15 11:54:04;;;;;;;3.63;2.80;;;;;;;18.57;40.24;96787.19;5069339;28;20444;-68